createdAt,value
2023-03-23T16:08:55.419Z,100403.34
2023-03-23T16:22:54.344Z,100414.00
2023-03-23T16:25:21.223Z,100423.81
2023-03-23T16:27:52.237Z,100418.50
2023-03-23T16:30:24.804Z,100401.50
2023-03-23T16:32:53.646Z,100417.13
2023-03-23T16:35:22.055Z,100415.81
2023-03-23T16:37:50.718Z,100415.28
2023-03-23T16:40:18.944Z,100408.97
2023-03-23T16:42:45.870Z,100405.00
2023-03-23T16:45:13.677Z,100407.84
2023-03-23T16:47:41.146Z,100404.63
2023-03-23T16:50:11.822Z,100416.97
2023-03-23T16:52:46.393Z,100414.28
2023-03-23T16:55:14.962Z,100399.66
2023-03-23T16:57:43.369Z,100401.97
2023-03-23T17:00:16.698Z,100412.47
2023-03-23T17:02:44.146Z,100416.97
2023-03-23T17:05:11.743Z,100410.78
2023-03-23T17:07:42.332Z,100403.63
2023-03-23T17:10:10.630Z,100412.47
2023-03-23T17:12:37.503Z,100412.47
2023-03-23T17:15:05.046Z,100414.97
2023-03-23T17:17:31.930Z,100413.47
2023-03-23T17:19:58.705Z,100407.28
2023-03-23T17:22:25.836Z,100399.13
2023-03-23T17:24:52.438Z,100391.50
2023-03-23T17:27:20.582Z,100390.50
2023-03-23T17:29:47.411Z,100387.81
2023-03-23T17:32:14.572Z,100395.00
2023-03-23T17:34:41.444Z,100389.47
2023-03-23T17:37:10.821Z,100392.16
2023-03-23T17:39:43.167Z,100382.47
2023-03-23T17:42:09.913Z,100375.53
2023-03-23T17:44:36.492Z,100366.03
2023-03-23T17:47:03.202Z,100373.84
2023-03-23T17:49:30.419Z,100373.03
2023-03-23T17:51:58.025Z,100369.34
2023-03-23T17:54:26.340Z,100365.69
2023-03-23T17:56:54.183Z,100360.69
2023-03-23T17:59:21.817Z,100371.81
2023-03-23T18:01:49.070Z,100369.53
2023-03-23T18:04:16.621Z,100379.19
2023-03-23T18:06:43.202Z,100367.38
2023-03-23T18:09:09.899Z,100371.53
2023-03-23T18:11:36.524Z,100370.53
2023-03-23T18:14:03.135Z,100367.69
2023-03-23T18:16:29.789Z,100365.19
2023-03-23T18:18:56.545Z,100362.19
2023-03-23T18:21:23.376Z,100355.19
2023-03-23T18:23:58.840Z,100345.19
2023-03-23T18:26:27.179Z,100354.19
2023-03-23T18:28:53.915Z,100358.34
2023-03-23T18:31:21.035Z,100358.50
2023-03-23T18:33:49.590Z,100351.34
2023-03-23T18:36:20.724Z,100355.19
2023-03-23T18:38:48.038Z,100345.38
2023-03-23T18:41:16.246Z,100334.88
2023-03-23T18:43:44.328Z,100334.53
2023-03-23T18:46:11.168Z,100324.06
2023-03-23T18:48:37.898Z,100323.22
2023-03-23T18:51:04.613Z,100327.56
2023-03-23T18:53:31.432Z,100331.06
2023-03-23T18:56:05.798Z,100323.06
2023-03-23T18:58:32.761Z,100325.91
2023-03-23T19:01:03.065Z,100327.56
2023-03-23T19:03:30.017Z,100317.91
2023-03-23T19:06:00.344Z,100318.06
2023-03-23T19:08:28.968Z,100315.25
2023-03-23T19:11:02.722Z,100314.41
2023-03-23T19:13:30.781Z,100319.25
2023-03-23T19:15:57.386Z,100320.72
2023-03-23T19:18:23.996Z,100314.56
2023-03-23T19:23:22.259Z,100307.41
2023-03-23T19:25:49.117Z,100304.91
2023-03-23T19:30:47.194Z,100301.41
2023-03-23T19:33:14.511Z,100295.25
2023-03-23T19:35:41.360Z,100289.09
2023-03-23T19:38:08.816Z,100287.44
2023-03-23T19:40:42.105Z,100286.25
2023-03-23T19:43:09.832Z,100275.13
2023-03-23T19:45:37.000Z,100275.94
2023-03-23T19:48:03.918Z,100281.94
2023-03-23T19:50:31.737Z,100281.28
2023-03-23T19:53:00.151Z,100272.28
2023-03-23T19:55:27.482Z,100282.09
2023-03-23T19:57:54.109Z,100272.28
2023-03-23T20:00:20.832Z,100262.13
2023-03-23T20:02:50.084Z,100253.13
2023-03-23T20:05:16.836Z,100249.31
2023-03-23T20:07:47.024Z,100254.63
2023-03-23T20:10:17.137Z,100247.63
2023-03-23T20:12:43.849Z,100256.63
2023-03-23T20:15:10.782Z,100243.47
2023-03-23T20:17:37.635Z,100248.63
2023-03-23T20:20:10.278Z,100244.13
2023-03-23T20:22:37.566Z,100236.31
2023-03-23T20:25:05.105Z,100234.81
2023-03-23T20:27:32.393Z,100233.00
2023-03-23T20:29:59.238Z,100224.84
2023-03-23T20:32:28.980Z,100225.66
2023-03-23T20:34:57.015Z,100217.22
2023-03-23T20:37:24.100Z,100220.50
2023-03-23T20:39:51.336Z,100214.19
2023-03-23T20:42:18.105Z,100211.50
2023-03-23T20:44:44.728Z,100220.72
2023-03-23T20:47:12.189Z,100208.19
2023-03-23T20:49:40.397Z,100208.84
2023-03-23T20:52:11.895Z,100205.53
2023-03-23T20:54:40.247Z,100202.06
2023-03-23T20:57:08.254Z,100199.03
2023-03-23T20:59:35.521Z,100200.69
2023-03-23T21:02:02.390Z,100179.91
2023-03-23T21:04:30.243Z,100189.38
2023-03-23T21:06:57.170Z,100185.03
2023-03-23T21:09:25.268Z,100181.38
2023-03-23T21:11:52.009Z,100168.06
2023-03-23T21:14:20.003Z,100175.22
2023-03-23T21:16:46.541Z,100163.09
2023-03-23T21:19:13.507Z,100163.72
2023-03-23T21:21:55.332Z,100156.56
2023-03-23T21:24:28.855Z,100158.22
2023-03-23T21:26:57.190Z,100147.75
2023-03-23T21:29:24.324Z,100125.16
2023-03-23T21:31:57.824Z,100124.59
2023-03-23T21:34:31.951Z,100127.47
2023-03-23T21:36:58.608Z,100115.97
2023-03-23T21:39:26.297Z,100110.44
2023-03-23T21:41:53.042Z,100103.50
2023-03-23T21:44:19.753Z,100091.19
2023-03-23T21:46:46.378Z,100084.19
2023-03-23T21:49:14.481Z,100085.84
2023-03-23T21:51:42.858Z,100084.84
2023-03-23T21:54:10.663Z,100081.34
2023-03-23T21:56:37.577Z,100074.53
2023-03-23T21:59:04.846Z,100074.38
2023-03-23T22:01:31.544Z,100076.84
2023-03-23T22:03:58.363Z,100073.69
2023-03-23T22:06:28.534Z,100081.34
2023-03-23T22:08:56.001Z,100076.03
2023-03-23T22:11:25.301Z,100085.00
2023-03-23T22:13:53.525Z,100065.53
2023-03-23T22:16:21.385Z,100066.19
2023-03-23T22:18:49.414Z,100049.72
2023-03-23T22:21:17.525Z,100062.03
2023-03-23T22:23:45.340Z,100049.06
2023-03-23T22:26:12.611Z,100037.91
2023-03-23T22:28:39.910Z,100041.41
2023-03-23T22:31:13.506Z,100040.41
2023-03-23T22:33:40.210Z,100035.41
2023-03-23T22:36:07.518Z,100041.97
2023-03-23T22:38:36.051Z,100024.09
2023-03-23T22:41:04.660Z,100033.13
2023-03-23T22:43:31.236Z,100021.66
2023-03-23T22:45:57.817Z,100029.00
2023-03-23T22:48:25.920Z,100025.50
2023-03-23T22:50:53.130Z,100013.19
2023-03-23T22:53:20.478Z,100019.50
2023-03-23T22:55:54.493Z,100005.53
2023-03-23T22:58:21.628Z,100000.22
2023-03-23T23:00:50.348Z,99996.06
2023-03-23T23:03:17.447Z,99993.41
2023-03-23T23:05:50.412Z,99984.75
2023-03-23T23:08:18.208Z,99985.59
2023-03-23T23:10:47.434Z,99974.50
2023-03-23T23:13:15.021Z,99980.47
2023-03-23T23:15:45.376Z,99977.16
2023-03-23T23:18:12.540Z,99966.31
2023-03-23T23:20:41.084Z,99960.19
2023-03-23T23:23:08.248Z,99968.16
2023-03-23T23:25:35.304Z,99950.88
2023-03-23T23:28:03.920Z,99952.38
2023-03-23T23:30:30.799Z,99940.22
2023-03-23T23:32:58.911Z,99944.56
2023-03-23T23:35:26.169Z,99925.44
2023-03-23T23:37:53.522Z,99936.72
2023-03-23T23:40:20.283Z,99925.44
2023-03-23T23:42:49.509Z,99921.75
2023-03-23T23:45:16.640Z,99919.44
2023-03-23T23:47:43.408Z,99920.28
2023-03-23T23:50:12.022Z,99908.81
2023-03-23T23:52:40.094Z,99904.47
2023-03-23T23:55:08.941Z,99901.00
2023-03-23T23:57:35.907Z,99888.94
